sensor_id;sensor_type;location;lat;lon;timestamp;pressure;altitude;pressure_sealevel;temperature;humidity
33161;BME280;19522;45.656;11.302;2022-09-09T00:01:30;98054.16;;;19.74;95.18
33161;BME280;19522;45.656;11.302;2022-09-09T00:06:30;98056.53;;;19.65;95.94
33161;BME280;19522;45.656;11.302;2022-09-09T00:09:17;98026.63;;;19.52;95.07
33161;BME280;19522;45.656;11.302;2022-09-09T00:20:35;98048.97;;;19.55;93.77
33161;BME280;19522;45.656;11.302;2022-09-09T00:23:39;98045.91;;;19.52;94.22
33161;BME280;19522;45.656;11.302;2022-09-09T00:31:30;98061.28;;;19.48;93.31
33161;BME280;19522;45.656;11.302;2022-09-09T00:34:19;98047.25;;;19.49;92.66
33161;BME280;19522;45.656;11.302;2022-09-09T00:36:48;98044.44;;;19.44;92.54
33161;BME280;19522;45.656;11.302;2022-09-09T00:39:38;98053.06;;;19.30;92.70
33161;BME280;19522;45.656;11.302;2022-09-09T00:44:37;98024.56;;;19.20;92.02
33161;BME280;19522;45.656;11.302;2022-09-09T00:50:03;98065.28;;;19.40;92.75
33161;BME280;19522;45.656;11.302;2022-09-09T00:55:17;98073.09;;;19.48;92.68
33161;BME280;19522;45.656;11.302;2022-09-09T00:57:48;97970.03;;;18.94;92.28
33161;BME280;19522;45.656;11.302;2022-09-09T01:00:48;98067.41;;;19.55;91.25
33161;BME280;19522;45.656;11.302;2022-09-09T01:11:37;98077.91;;;19.13;94.16
33161;BME280;19522;45.656;11.302;2022-09-09T01:14:30;98080.38;;;19.15;94.42
33161;BME280;19522;45.656;11.302;2022-09-09T01:17:22;98080.88;;;19.12;94.94
33161;BME280;19522;45.656;11.302;2022-09-09T01:27:52;98087.41;;;19.45;93.03
33161;BME280;19522;45.656;11.302;2022-09-09T01:30:20;98028.97;;;18.98;93.21
33161;BME280;19522;45.656;11.302;2022-09-09T01:32:49;98073.94;;;19.26;92.73
33161;BME280;19522;45.656;11.302;2022-09-09T01:38:05;97998.13;;;18.79;92.47
33161;BME280;19522;45.656;11.302;2022-09-09T01:40:31;98008.47;;;18.89;92.88
33161;BME280;19522;45.656;11.302;2022-09-09T01:42:57;98075.84;;;19.26;92.92
33161;BME280;19522;45.656;11.302;2022-09-09T01:45:23;98066.31;;;19.34;93.28
33161;BME280;19522;45.656;11.302;2022-09-09T01:47:51;98064.06;;;19.30;94.08
33161;BME280;19522;45.656;11.302;2022-09-09T01:50:18;98028.84;;;19.10;93.67
33161;BME280;19522;45.656;11.302;2022-09-09T01:52:46;98063.97;;;19.42;92.97
33161;BME280;19522;45.656;11.302;2022-09-09T01:55:14;98061.66;;;19.56;90.64
33161;BME280;19522;45.656;11.302;2022-09-09T01:57:50;98055.03;;;19.57;90.18
33161;BME280;19522;45.656;11.302;2022-09-09T02:00:21;98065.75;;;19.54;90.22
33161;BME280;19522;45.656;11.302;2022-09-09T02:03:05;98065.69;;;19.49;90.21
33161;BME280;19522;45.656;11.302;2022-09-09T02:05:43;98070.13;;;19.50;90.70
33161;BME280;19522;45.656;11.302;2022-09-09T02:08:26;98021.97;;;19.30;89.90
33161;BME280;19522;45.656;11.302;2022-09-09T02:11:14;98066.56;;;19.76;88.21
33161;BME280;19522;45.656;11.302;2022-09-09T02:13:40;98013.69;;;19.52;88.23
33161;BME280;19522;45.656;11.302;2022-09-09T02:19:20;98064.09;;;19.75;88.46
33161;BME280;19522;45.656;11.302;2022-09-09T02:21:52;98068.72;;;19.47;90.78
33161;BME280;19522;45.656;11.302;2022-09-09T02:24:19;98061.91;;;19.33;92.09
33161;BME280;19522;45.656;11.302;2022-09-09T02:26:47;98071.78;;;19.51;91.73
33161;BME280;19522;45.656;11.302;2022-09-09T02:29:20;98039.44;;;19.41;89.42
33161;BME280;19522;45.656;11.302;2022-09-09T02:31:49;98063.56;;;19.78;88.53
33161;BME280;19522;45.656;11.302;2022-09-09T02:34:17;98056.22;;;19.61;87.52
33161;BME280;19522;45.656;11.302;2022-09-09T02:36:45;98064.94;;;19.53;88.69
33161;BME280;19522;45.656;11.302;2022-09-09T02:39:12;98027.47;;;19.30;89.78
33161;BME280;19522;45.656;11.302;2022-09-09T02:41:40;98047.25;;;19.49;89.29
33161;BME280;19522;45.656;11.302;2022-09-09T02:44:17;98063.06;;;19.59;89.93
33161;BME280;19522;45.656;11.302;2022-09-09T02:47:01;98059.13;;;19.77;89.06
33161;BME280;19522;45.656;11.302;2022-09-09T02:52:13;98050.31;;;19.75;87.98
33161;BME280;19522;45.656;11.302;2022-09-09T02:54:43;98053.56;;;19.72;88.36
33161;BME280;19522;45.656;11.302;2022-09-09T02:57:27;97977.03;;;19.24;87.69
33161;BME280;19522;45.656;11.302;2022-09-09T02:59:57;97988.16;;;19.35;87.84
33161;BME280;19522;45.656;11.302;2022-09-09T03:02:22;98020.56;;;19.50;88.42
33161;BME280;19522;45.656;11.302;2022-09-09T03:04:48;98048.34;;;19.70;88.08
33161;BME280;19522;45.656;11.302;2022-09-09T03:07:17;98032.63;;;19.71;88.34
33161;BME280;19522;45.656;11.302;2022-09-09T03:09:43;98057.03;;;19.84;87.67
33161;BME280;19522;45.656;11.302;2022-09-09T03:12:10;97996.41;;;19.57;87.34
33161;BME280;19522;45.656;11.302;2022-09-09T03:14:36;98036.16;;;19.88;87.20
33161;BME280;19522;45.656;11.302;2022-09-09T03:17:04;98029.94;;;19.76;87.64
33161;BME280;19522;45.656;11.302;2022-09-09T03:19:30;97959.16;;;19.27;87.78
33161;BME280;19522;45.656;11.302;2022-09-09T03:21:57;98019.94;;;19.70;87.50
33161;BME280;19522;45.656;11.302;2022-09-09T03:24:22;98034.91;;;19.79;88.08
33161;BME280;19522;45.656;11.302;2022-09-09T03:26:48;98034.69;;;19.81;87.82
33161;BME280;19522;45.656;11.302;2022-09-09T03:29:13;98034.09;;;20.01;86.66
33161;BME280;19522;45.656;11.302;2022-09-09T03:31:40;98027.69;;;19.73;88.78
33161;BME280;19522;45.656;11.302;2022-09-09T03:34:06;97958.31;;;19.49;88.72
33161;BME280;19522;45.656;11.302;2022-09-09T03:36:32;97997.91;;;19.70;89.32
33161;BME280;19522;45.656;11.302;2022-09-09T03:38:57;98004.47;;;19.64;89.91
33161;BME280;19522;45.656;11.302;2022-09-09T03:41:24;97961.22;;;19.37;90.26
33161;BME280;19522;45.656;11.302;2022-09-09T03:43:51;98012.22;;;19.67;90.41
33161;BME280;19522;45.656;11.302;2022-09-09T03:46:22;97967.91;;;19.46;89.38
33161;BME280;19522;45.656;11.302;2022-09-09T03:48:51;97947.13;;;19.33;89.76
33161;BME280;19522;45.656;11.302;2022-09-09T03:51:19;98021.72;;;19.81;89.91
33161;BME280;19522;45.656;11.302;2022-09-09T03:53:46;97979.94;;;19.62;89.23
33161;BME280;19522;45.656;11.302;2022-09-09T03:56:11;97997.84;;;19.87;89.22
33161;BME280;19522;45.656;11.302;2022-09-09T03:58:37;97979.72;;;19.69;89.10
33161;BME280;19522;45.656;11.302;2022-09-09T04:01:10;97962.69;;;19.72;89.79
33161;BME280;19522;45.656;11.302;2022-09-09T04:03:38;98006.84;;;19.82;91.40
33161;BME280;19522;45.656;11.302;2022-09-09T04:06:05;98012.41;;;19.60;92.05
33161;BME280;19522;45.656;11.302;2022-09-09T04:08:32;98010.66;;;19.54;92.58
33161;BME280;19522;45.656;11.302;2022-09-09T04:10:58;97985.66;;;19.55;92.03
33161;BME280;19522;45.656;11.302;2022-09-09T04:13:25;97913.72;;;19.24;91.75
33161;BME280;19522;45.656;11.302;2022-09-09T04:15:55;97973.91;;;19.65;90.49
33161;BME280;19522;45.656;11.302;2022-09-09T04:18:22;97937.41;;;19.53;91.08
33161;BME280;19522;45.656;11.302;2022-09-09T04:20:54;97949.31;;;19.58;91.80
33161;BME280;19522;45.656;11.302;2022-09-09T04:23:23;97969.28;;;19.71;92.11
33161;BME280;19522;45.656;11.302;2022-09-09T04:25:53;97860.88;;;19.00;92.33
33161;BME280;19522;45.656;11.302;2022-09-09T04:28:21;97911.38;;;19.38;93.37
33161;BME280;19522;45.656;11.302;2022-09-09T04:30:47;97962.16;;;19.75;91.88
33161;BME280;19522;45.656;11.302;2022-09-09T04:33:14;97930.56;;;19.55;91.77
33161;BME280;19522;45.656;11.302;2022-09-09T04:35:45;97983.88;;;19.93;90.51
33161;BME280;19522;45.656;11.302;2022-09-09T04:38:11;97974.28;;;20.01;90.71
33161;BME280;19522;45.656;11.302;2022-09-09T04:40:37;97969.78;;;19.90;90.81
33161;BME280;19522;45.656;11.302;2022-09-09T04:43:08;97978.31;;;20.21;90.74
33161;BME280;19522;45.656;11.302;2022-09-09T04:45:34;97979.00;;;20.06;91.10
33161;BME280;19522;45.656;11.302;2022-09-09T04:48:00;97876.88;;;19.30;93.58
33161;BME280;19522;45.656;11.302;2022-09-09T04:50:26;97985.06;;;20.03;93.37
33161;BME280;19522;45.656;11.302;2022-09-09T04:52:51;97981.16;;;19.99;92.10
33161;BME280;19522;45.656;11.302;2022-09-09T04:55:17;97936.28;;;19.76;91.61
33161;BME280;19522;45.656;11.302;2022-09-09T04:57:42;97966.75;;;19.91;92.53
33161;BME280;19522;45.656;11.302;2022-09-09T05:00:11;97972.09;;;20.03;91.35
33161;BME280;19522;45.656;11.302;2022-09-09T05:02:39;97982.88;;;20.05;91.13
33161;BME280;19522;45.656;11.302;2022-09-09T05:05:06;97978.38;;;19.99;92.22
33161;BME280;19522;45.656;11.302;2022-09-09T05:07:32;97977.72;;;19.86;93.91
33161;BME280;19522;45.656;11.302;2022-09-09T05:09:57;97908.38;;;19.40;96.30
33161;BME280;19522;45.656;11.302;2022-09-09T05:12:23;97982.66;;;19.84;97.17
33161;BME280;19522;45.656;11.302;2022-09-09T05:14:51;97985.34;;;19.79;98.07
33161;BME280;19522;45.656;11.302;2022-09-09T05:17:17;97923.69;;;19.30;97.77
33161;BME280;19522;45.656;11.302;2022-09-09T05:19:43;97989.47;;;19.82;97.15
33161;BME280;19522;45.656;11.302;2022-09-09T05:22:09;97993.16;;;19.87;97.28
33161;BME280;19522;45.656;11.302;2022-09-09T05:24:36;97964.34;;;19.73;96.35
33161;BME280;19522;45.656;11.302;2022-09-09T05:27:01;97986.41;;;20.00;95.27
33161;BME280;19522;45.656;11.302;2022-09-09T05:29:27;97983.88;;;19.93;96.75
33161;BME280;19522;45.656;11.302;2022-09-09T05:31:53;97977.88;;;20.02;96.34
33161;BME280;19522;45.656;11.302;2022-09-09T05:34:19;97998.00;;;20.35;93.69
33161;BME280;19522;45.656;11.302;2022-09-09T05:36:46;98001.53;;;20.30;94.16
33161;BME280;19522;45.656;11.302;2022-09-09T05:39:12;98005.81;;;20.43;92.39
33161;BME280;19522;45.656;11.302;2022-09-09T05:41:37;98020.69;;;20.42;90.82
33161;BME280;19522;45.656;11.302;2022-09-09T05:44:03;98017.66;;;20.44;93.19
33161;BME280;19522;45.656;11.302;2022-09-09T05:46:29;98000.75;;;20.35;95.33
33161;BME280;19522;45.656;11.302;2022-09-09T05:48:55;98007.19;;;20.46;92.83
33161;BME280;19522;45.656;11.302;2022-09-09T05:51:26;97953.69;;;20.09;93.06
33161;BME280;19522;45.656;11.302;2022-09-09T05:53:53;98007.31;;;20.29;94.60
33161;BME280;19522;45.656;11.302;2022-09-09T05:56:22;98007.41;;;20.39;95.10
33161;BME280;19522;45.656;11.302;2022-09-09T05:58:49;98006.34;;;20.45;94.51
33161;BME280;19522;45.656;11.302;2022-09-09T06:01:20;98004.25;;;20.58;93.47
33161;BME280;19522;45.656;11.302;2022-09-09T06:03:48;98003.16;;;20.59;93.32
33161;BME280;19522;45.656;11.302;2022-09-09T06:06:19;98004.31;;;20.68;90.42
33161;BME280;19522;45.656;11.302;2022-09-09T06:08:53;98003.88;;;20.49;91.89
33161;BME280;19522;45.656;11.302;2022-09-09T06:11:26;98010.69;;;20.36;94.30
33161;BME280;19522;45.656;11.302;2022-09-09T06:13:52;98007.13;;;20.40;92.76
33161;BME280;19522;45.656;11.302;2022-09-09T06:16:21;97978.75;;;20.40;92.45
33161;BME280;19522;45.656;11.302;2022-09-09T06:18:50;98005.75;;;20.38;94.89
33161;BME280;19522;45.656;11.302;2022-09-09T06:21:21;98007.69;;;20.37;94.96
33161;BME280;19522;45.656;11.302;2022-09-09T06:23:47;98014.69;;;20.50;94.30
33161;BME280;19522;45.656;11.302;2022-09-09T06:26:20;98028.00;;;20.64;94.17
33161;BME280;19522;45.656;11.302;2022-09-09T06:28:49;98019.00;;;20.74;92.90
33161;BME280;19522;45.656;11.302;2022-09-09T06:31:17;97874.22;;;19.96;91.36
33161;BME280;19522;45.656;11.302;2022-09-09T06:33:43;98011.13;;;20.93;91.06
33161;BME280;19522;45.656;11.302;2022-09-09T06:36:32;98013.50;;;20.79;89.73
33161;BME280;19522;45.656;11.302;2022-09-09T06:38:59;98020.06;;;20.73;90.20
33161;BME280;19522;45.656;11.302;2022-09-09T06:41:27;98014.66;;;20.83;90.42
33161;BME280;19522;45.656;11.302;2022-09-09T06:43:53;98020.41;;;20.76;90.89
33161;BME280;19522;45.656;11.302;2022-09-09T06:46:20;97975.78;;;20.52;91.76
33161;BME280;19522;45.656;11.302;2022-09-09T06:48:50;97998.66;;;20.85;90.61
33161;BME280;19522;45.656;11.302;2022-09-09T06:51:19;97981.81;;;20.81;90.23
33161;BME280;19522;45.656;11.302;2022-09-09T06:53:46;98020.66;;;21.17;89.92
33161;BME280;19522;45.656;11.302;2022-09-09T06:56:24;98018.50;;;21.30;89.41
33161;BME280;19522;45.656;11.302;2022-09-09T06:58:51;98021.28;;;21.35;89.10
33161;BME280;19522;45.656;11.302;2022-09-09T07:01:23;98019.69;;;21.50;88.41
33161;BME280;19522;45.656;11.302;2022-09-09T07:03:53;98022.25;;;21.61;86.97
33161;BME280;19522;45.656;11.302;2022-09-09T07:06:30;97998.94;;;21.42;86.94
33161;BME280;19522;45.656;11.302;2022-09-09T07:09:02;98004.28;;;21.59;86.32
33161;BME280;19522;45.656;11.302;2022-09-09T07:11:31;98012.88;;;21.68;85.85
33161;BME280;19522;45.656;11.302;2022-09-09T07:13:58;98017.63;;;21.88;85.44
33161;BME280;19522;45.656;11.302;2022-09-09T07:16:25;98017.91;;;21.97;84.68
33161;BME280;19522;45.656;11.302;2022-09-09T07:18:51;98017.66;;;22.19;81.98
33161;BME280;19522;45.656;11.302;2022-09-09T07:21:18;98009.38;;;22.29;79.81
33161;BME280;19522;45.656;11.302;2022-09-09T07:23:44;98007.69;;;22.18;81.48
33161;BME280;19522;45.656;11.302;2022-09-09T07:26:10;98009.34;;;22.03;82.70
33161;BME280;19522;45.656;11.302;2022-09-09T07:28:36;97996.91;;;22.06;82.52
33161;BME280;19522;45.656;11.302;2022-09-09T07:31:02;98015.47;;;22.21;82.71
33161;BME280;19522;45.656;11.302;2022-09-09T07:33:29;97941.06;;;21.78;81.31
33161;BME280;19522;45.656;11.302;2022-09-09T07:36:03;98011.63;;;22.43;80.37
33161;BME280;19522;45.656;11.302;2022-09-09T07:38:29;98005.56;;;22.46;79.55
33161;BME280;19522;45.656;11.302;2022-09-09T07:41:06;98003.31;;;22.68;78.69
33161;BME280;19522;45.656;11.302;2022-09-09T07:43:34;98003.56;;;22.36;77.11
33161;BME280;19522;45.656;11.302;2022-09-09T07:46:00;98004.16;;;22.64;76.61
33161;BME280;19522;45.656;11.302;2022-09-09T07:48:29;98005.97;;;23.25;73.44
33161;BME280;19522;45.656;11.302;2022-09-09T07:51:07;98003.47;;;23.29;73.31
33161;BME280;19522;45.656;11.302;2022-09-09T07:53:34;98003.00;;;22.85;72.45
33161;BME280;19522;45.656;11.302;2022-09-09T07:56:10;98007.72;;;22.90;74.84
33161;BME280;19522;45.656;11.302;2022-09-09T07:58:37;98005.47;;;22.97;75.53
33161;BME280;19522;45.656;11.302;2022-09-09T08:01:11;98004.41;;;22.78;71.38
33161;BME280;19522;45.656;11.302;2022-09-09T08:03:37;98002.47;;;22.88;69.76
33161;BME280;19522;45.656;11.302;2022-09-09T08:06:08;98006.56;;;23.12;70.38
33161;BME280;19522;45.656;11.302;2022-09-09T08:08:35;98012.09;;;23.12;73.36
33161;BME280;19522;45.656;11.302;2022-09-09T08:11:12;98008.78;;;22.99;74.06
33161;BME280;19522;45.656;11.302;2022-09-09T08:13:39;98008.78;;;22.99;74.24
33161;BME280;19522;45.656;11.302;2022-09-09T08:16:16;98015.72;;;23.07;74.96
33161;BME280;19522;45.656;11.302;2022-09-09T08:18:42;98008.75;;;23.15;75.18
33161;BME280;19522;45.656;11.302;2022-09-09T08:21:14;98010.94;;;23.28;74.46
33161;BME280;19522;45.656;11.302;2022-09-09T08:23:41;97947.00;;;23.14;73.47
33161;BME280;19522;45.656;11.302;2022-09-09T08:26:11;98007.38;;;23.83;71.29
33161;BME280;19522;45.656;11.302;2022-09-09T08:28:41;98003.94;;;24.07;67.74
33161;BME280;19522;45.656;11.302;2022-09-09T08:31:15;98006.34;;;24.19;67.86
33161;BME280;19522;45.656;11.302;2022-09-09T08:33:41;98005.94;;;24.36;67.86
33161;BME280;19522;45.656;11.302;2022-09-09T08:36:10;98016.59;;;24.87;65.16
33161;BME280;19522;45.656;11.302;2022-09-09T08:38:37;98002.81;;;25.31;62.93
33161;BME280;19522;45.656;11.302;2022-09-09T08:44:10;97999.94;;;25.60;59.90
33161;BME280;19522;45.656;11.302;2022-09-09T08:47:11;98008.09;;;25.76;59.07
33161;BME280;19522;45.656;11.302;2022-09-09T08:50:32;98000.75;;;25.42;59.47
33161;BME280;19522;45.656;11.302;2022-09-09T08:55:49;97989.69;;;25.12;60.78
33161;BME280;19522;45.656;11.302;2022-09-09T08:58:23;97940.44;;;25.18;59.99
33161;BME280;19522;45.656;11.302;2022-09-09T09:12:10;97899.38;;;25.58;57.84
33161;BME280;19522;45.656;11.302;2022-09-09T09:14:40;97938.19;;;26.02;56.78
33161;BME280;19522;45.656;11.302;2022-09-09T09:17:12;97973.53;;;26.86;54.84
33161;BME280;19522;45.656;11.302;2022-09-09T09:19:41;97970.38;;;27.49;53.79
33161;BME280;19522;45.656;11.302;2022-09-09T09:28:12;97973.84;;;26.19;56.77
33161;BME280;19522;45.656;11.302;2022-09-09T09:31:09;97970.84;;;26.48;56.71
33161;BME280;19522;45.656;11.302;2022-09-09T09:36:13;97959.63;;;26.53;56.16
33161;BME280;19522;45.656;11.302;2022-09-09T09:38:56;97962.88;;;26.74;55.58
33161;BME280;19522;45.656;11.302;2022-09-09T09:41:36;97962.34;;;26.72;54.71
33161;BME280;19522;45.656;11.302;2022-09-09T09:44:04;97952.38;;;26.38;54.31
33161;BME280;19522;45.656;11.302;2022-09-09T09:46:31;97960.56;;;26.49;55.18
33161;BME280;19522;45.656;11.302;2022-09-09T09:48:59;97949.09;;;25.98;57.51
33161;BME280;19522;45.656;11.302;2022-09-09T09:51:26;97963.44;;;26.05;58.67
33161;BME280;19522;45.656;11.302;2022-09-09T09:53:53;97944.44;;;25.55;58.48
33161;BME280;19522;45.656;11.302;2022-09-09T09:56:27;97968.16;;;25.23;59.16
33161;BME280;19522;45.656;11.302;2022-09-09T09:58:56;97936.00;;;25.17;59.80
33161;BME280;19522;45.656;11.302;2022-09-09T10:01:30;97962.16;;;25.40;61.19
33161;BME280;19522;45.656;11.302;2022-09-09T10:04:22;97960.72;;;25.18;62.24
33161;BME280;19522;45.656;11.302;2022-09-09T10:06:49;97959.28;;;24.97;62.00
33161;BME280;19522;45.656;11.302;2022-09-09T10:09:31;97954.94;;;24.91;62.84
33161;BME280;19522;45.656;11.302;2022-09-09T10:14:38;97957.88;;;24.75;62.36
33161;BME280;19522;45.656;11.302;2022-09-09T10:17:47;97959.81;;;24.45;62.95
33161;BME280;19522;45.656;11.302;2022-09-09T10:23:46;97956.41;;;24.19;64.44
33161;BME280;19522;45.656;11.302;2022-09-09T10:37:30;97985.72;;;23.85;70.27
33161;BME280;19522;45.656;11.302;2022-09-09T10:42:42;97965.97;;;23.52;71.68
33161;BME280;19522;45.656;11.302;2022-09-09T10:45:17;97982.66;;;23.37;75.10
33161;BME280;19522;45.656;11.302;2022-09-09T10:53:22;97996.34;;;22.97;67.46
33161;BME280;19522;45.656;11.302;2022-09-09T10:55:53;97968.72;;;22.71;62.12
33161;BME280;19522;45.656;11.302;2022-09-09T10:58:27;98004.41;;;22.72;61.39
33161;BME280;19522;45.656;11.302;2022-09-09T11:00:59;98012.16;;;22.76;59.73
33161;BME280;19522;45.656;11.302;2022-09-09T11:03:28;98017.44;;;22.67;59.99
33161;BME280;19522;45.656;11.302;2022-09-09T11:06:05;98026.00;;;22.50;58.86
33161;BME280;19522;45.656;11.302;2022-09-09T11:08:34;98034.00;;;22.20;63.93
33161;BME280;19522;45.656;11.302;2022-09-09T11:11:09;98036.19;;;22.18;60.84
33161;BME280;19522;45.656;11.302;2022-09-09T11:13:45;98023.75;;;22.36;60.67
33161;BME280;19522;45.656;11.302;2022-09-09T11:16:29;98030.41;;;22.35;63.43
33161;BME280;19522;45.656;11.302;2022-09-09T11:21:50;98015.91;;;21.71;63.98
33161;BME280;19522;45.656;11.302;2022-09-09T11:24:28;98027.81;;;21.77;63.36
33161;BME280;19522;45.656;11.302;2022-09-09T11:33:04;98016.50;;;21.89;72.03
33161;BME280;19522;45.656;11.302;2022-09-09T11:38:18;98006.22;;;21.58;74.29
33161;BME280;19522;45.656;11.302;2022-09-09T11:40:45;98005.69;;;21.67;75.09
33161;BME280;19522;45.656;11.302;2022-09-09T11:43:19;97988.53;;;21.64;74.93
33161;BME280;19522;45.656;11.302;2022-09-09T11:45:53;97916.38;;;21.51;70.51
33161;BME280;19522;45.656;11.302;2022-09-09T11:48:38;97984.75;;;22.22;68.62
33161;BME280;19522;45.656;11.302;2022-09-09T11:56:34;97939.41;;;22.13;67.99
33161;BME280;19522;45.656;11.302;2022-09-09T11:59:21;97990.31;;;22.53;69.14
33161;BME280;19522;45.656;11.302;2022-09-09T12:02:03;97992.00;;;22.60;70.98
33161;BME280;19522;45.656;11.302;2022-09-09T12:04:36;97990.28;;;22.84;66.24
33161;BME280;19522;45.656;11.302;2022-09-09T12:09:48;97976.13;;;22.96;63.97
33161;BME280;19522;45.656;11.302;2022-09-09T12:12:37;97977.53;;;22.94;63.46
33161;BME280;19522;45.656;11.302;2022-09-09T12:15:22;97938.56;;;22.38;60.76
33161;BME280;19522;45.656;11.302;2022-09-09T12:17:53;97975.91;;;22.25;62.02
33161;BME280;19522;45.656;11.302;2022-09-09T12:23:08;97970.13;;;22.32;66.33
33161;BME280;19522;45.656;11.302;2022-09-09T12:25:48;97968.75;;;22.45;65.63
33161;BME280;19522;45.656;11.302;2022-09-09T12:28:19;97958.50;;;22.61;63.63
33161;BME280;19522;45.656;11.302;2022-09-09T12:33:18;97915.91;;;22.47;64.81
33161;BME280;19522;45.656;11.302;2022-09-09T12:35:48;97975.56;;;22.99;64.98
33161;BME280;19522;45.656;11.302;2022-09-09T12:38:30;97945.44;;;22.87;63.87
33161;BME280;19522;45.656;11.302;2022-09-09T12:40:58;97942.34;;;22.94;63.91
33161;BME280;19522;45.656;11.302;2022-09-09T12:43:25;97973.88;;;23.09;63.55
33161;BME280;19522;45.656;11.302;2022-09-09T12:46:02;97972.47;;;23.11;63.88
33161;BME280;19522;45.656;11.302;2022-09-09T12:48:36;97943.72;;;23.02;64.15
33161;BME280;19522;45.656;11.302;2022-09-09T12:51:15;97963.88;;;23.28;64.20
33161;BME280;19522;45.656;11.302;2022-09-09T12:53:45;97960.75;;;23.40;61.63
33161;BME280;19522;45.656;11.302;2022-09-09T12:56:19;97933.66;;;23.32;59.10
33161;BME280;19522;45.656;11.302;2022-09-09T12:58:46;97958.13;;;23.04;58.19
33161;BME280;19522;45.656;11.302;2022-09-09T13:01:32;97951.78;;;22.93;58.89
33161;BME280;19522;45.656;11.302;2022-09-09T13:04:01;97965.34;;;22.90;59.21
33161;BME280;19522;45.656;11.302;2022-09-09T13:06:31;97903.72;;;22.58;58.38
33161;BME280;19522;45.656;11.302;2022-09-09T13:08:59;97962.34;;;22.70;61.89
33161;BME280;19522;45.656;11.302;2022-09-09T13:11:33;97957.97;;;22.54;60.91
33161;BME280;19522;45.656;11.302;2022-09-09T13:14:01;97955.72;;;22.30;65.51
33161;BME280;19522;45.656;11.302;2022-09-09T13:16:30;97966.22;;;22.38;65.34
33161;BME280;19522;45.656;11.302;2022-09-09T13:18:58;97965.41;;;22.38;65.77
33161;BME280;19522;45.656;11.302;2022-09-09T13:21:41;97923.09;;;22.48;63.76
33161;BME280;19522;45.656;11.302;2022-09-09T13:24:33;97962.91;;;22.72;63.10
33161;BME280;19522;45.656;11.302;2022-09-09T13:27:04;97964.84;;;22.25;62.97
33161;BME280;19522;45.656;11.302;2022-09-09T13:29:31;97959.31;;;22.62;63.13
33161;BME280;19522;45.656;11.302;2022-09-09T13:32:06;97952.19;;;23.37;59.41
33161;BME280;19522;45.656;11.302;2022-09-09T13:34:37;97949.13;;;23.88;57.94
33161;BME280;19522;45.656;11.302;2022-09-09T13:37:22;97822.91;;;23.61;57.42
33161;BME280;19522;45.656;11.302;2022-09-09T13:39:51;97932.25;;;24.83;56.57
33161;BME280;19522;45.656;11.302;2022-09-09T13:42:29;97903.88;;;24.86;54.21
33161;BME280;19522;45.656;11.302;2022-09-09T13:44:56;97932.94;;;25.43;53.23
33161;BME280;19522;45.656;11.302;2022-09-09T13:47:30;97928.94;;;26.06;52.29
33161;BME280;19522;45.656;11.302;2022-09-09T13:49:56;97927.22;;;26.43;50.51
33161;BME280;19522;45.656;11.302;2022-09-09T13:52:22;97910.38;;;26.21;48.71
33161;BME280;19522;45.656;11.302;2022-09-09T13:54:49;97921.25;;;26.83;48.18
33161;BME280;19522;45.656;11.302;2022-09-09T13:57:19;97896.16;;;27.11;46.11
33161;BME280;19522;45.656;11.302;2022-09-09T13:59:46;97911.06;;;27.94;46.74
33161;BME280;19522;45.656;11.302;2022-09-09T14:02:11;97805.72;;;27.68;45.70
33161;BME280;19522;45.656;11.302;2022-09-09T14:04:37;97906.31;;;28.40;44.73
33161;BME280;19522;45.656;11.302;2022-09-09T14:07:03;97883.03;;;28.76;43.84
33161;BME280;19522;45.656;11.302;2022-09-09T14:09:29;97893.84;;;29.18;42.97
33161;BME280;19522;45.656;11.302;2022-09-09T14:11:54;97889.09;;;29.18;42.17
33161;BME280;19522;45.656;11.302;2022-09-09T14:14:22;97864.47;;;28.49;43.11
33161;BME280;19522;45.656;11.302;2022-09-09T14:16:48;97869.28;;;28.03;43.54
33161;BME280;19522;45.656;11.302;2022-09-09T14:19:13;97890.84;;;27.88;44.07
33161;BME280;19522;45.656;11.302;2022-09-09T14:21:39;97888.56;;;28.36;43.87
33161;BME280;19522;45.656;11.302;2022-09-09T14:24:05;97889.88;;;29.10;43.11
33161;BME280;19522;45.656;11.302;2022-09-09T14:26:31;97891.16;;;29.62;41.08
33161;BME280;19522;45.656;11.302;2022-09-09T14:28:57;97888.38;;;29.97;41.57
33161;BME280;19522;45.656;11.302;2022-09-09T14:31:23;97889.34;;;30.19;39.94
33161;BME280;19522;45.656;11.302;2022-09-09T14:33:49;97887.03;;;30.29;40.15
33161;BME280;19522;45.656;11.302;2022-09-09T14:36:16;97885.00;;;30.47;39.45
33161;BME280;19522;45.656;11.302;2022-09-09T14:38:41;97885.94;;;30.69;38.60
33161;BME280;19522;45.656;11.302;2022-09-09T14:41:17;97876.09;;;30.63;37.66
33161;BME280;19522;45.656;11.302;2022-09-09T14:43:44;97888.00;;;30.42;38.12
33161;BME280;19522;45.656;11.302;2022-09-09T14:46:12;97885.19;;;30.34;38.48
33161;BME280;19522;45.656;11.302;2022-09-09T14:48:38;97890.69;;;30.12;39.12
33161;BME280;19522;45.656;11.302;2022-09-09T14:51:12;97863.34;;;29.74;34.82
33161;BME280;19522;45.656;11.302;2022-09-09T14:53:40;97889.81;;;29.50;32.07
33161;BME280;19522;45.656;11.302;2022-09-09T14:56:08;97886.22;;;29.01;32.87
33161;BME280;19522;45.656;11.302;2022-09-09T14:58:35;97891.53;;;27.94;35.08
33161;BME280;19522;45.656;11.302;2022-09-09T15:01:05;97886.75;;;28.08;37.29
33161;BME280;19522;45.656;11.302;2022-09-09T15:03:30;97902.00;;;27.88;36.33
33161;BME280;19522;45.656;11.302;2022-09-09T15:05:56;97904.13;;;27.68;39.63
33161;BME280;19522;45.656;11.302;2022-09-09T15:08:24;97876.09;;;27.51;39.24
33161;BME280;19522;45.656;11.302;2022-09-09T15:10:49;97875.78;;;27.38;40.28
33161;BME280;19522;45.656;11.302;2022-09-09T15:13:16;97850.56;;;26.79;40.90
33161;BME280;19522;45.656;11.302;2022-09-09T15:15:42;97876.25;;;26.90;41.22